sensor_id;sensor_type;location;lat;lon;timestamp;P1;durP1;ratioP1;P2;durP2;ratioP2
25365;SDS011;13315;48.274;-1.900;2023-02-28T00:00:03;11.10;;;5.57;;
25365;SDS011;13315;48.274;-1.900;2023-02-28T00:02:35;6.53;;;5.07;;
25365;SDS011;13315;48.274;-1.900;2023-02-28T00:05:01;10.98;;;4.88;;
25365;SDS011;13315;48.274;-1.900;2023-02-28T00:07:28;6.53;;;4.85;;
25365;SDS011;13315;48.274;-1.900;2023-02-28T00:09:55;11.45;;;5.57;;
25365;SDS011;13315;48.274;-1.900;2023-02-28T00:12:21;11.32;;;4.90;;
25365;SDS011;13315;48.274;-1.900;2023-02-28T00:14:47;9.35;;;5.47;;
25365;SDS011;13315;48.274;-1.900;2023-02-28T00:17:14;8.75;;;4.90;;
25365;SDS011;13315;48.274;-1.900;2023-02-28T00:19:41;9.27;;;5.25;;
25365;SDS011;13315;48.274;-1.900;2023-02-28T00:22:07;15.73;;;4.90;;
25365;SDS011;13315;48.274;-1.900;2023-02-28T00:24:33;7.63;;;5.45;;
25365;SDS011;13315;48.274;-1.900;2023-02-28T00:26:59;9.48;;;4.78;;
25365;SDS011;13315;48.274;-1.900;2023-02-28T00:29:25;8.90;;;5.15;;
25365;SDS011;13315;48.274;-1.900;2023-02-28T00:31:51;9.27;;;5.00;;
25365;SDS011;13315;48.274;-1.900;2023-02-28T00:34:17;11.15;;;5.40;;
25365;SDS011;13315;48.274;-1.900;2023-02-28T00:36:43;11.63;;;5.07;;
25365;SDS011;13315;48.274;-1.900;2023-02-28T00:39:11;15.60;;;4.70;;
25365;SDS011;13315;48.274;-1.900;2023-02-28T00:41:37;11.50;;;5.90;;
25365;SDS011;13315;48.274;-1.900;2023-02-28T00:44:03;13.32;;;5.38;;
25365;SDS011;13315;48.274;-1.900;2023-02-28T00:46:29;12.20;;;6.03;;
25365;SDS011;13315;48.274;-1.900;2023-02-28T00:48:55;7.45;;;5.80;;
25365;SDS011;13315;48.274;-1.900;2023-02-28T00:51:21;7.75;;;5.35;;
25365;SDS011;13315;48.274;-1.900;2023-02-28T00:53:47;9.32;;;6.07;;
25365;SDS011;13315;48.274;-1.900;2023-02-28T00:56:13;11.20;;;5.68;;
25365;SDS011;13315;48.274;-1.900;2023-02-28T00:58:39;11.57;;;5.50;;
25365;SDS011;13315;48.274;-1.900;2023-02-28T01:01:06;9.32;;;5.80;;
25365;SDS011;13315;48.274;-1.900;2023-02-28T01:03:32;7.55;;;5.80;;
25365;SDS011;13315;48.274;-1.900;2023-02-28T01:05:58;10.82;;;5.57;;
25365;SDS011;13315;48.274;-1.900;2023-02-28T01:08:24;11.80;;;6.07;;
25365;SDS011;13315;48.274;-1.900;2023-02-28T01:10:51;10.90;;;5.70;;
25365;SDS011;13315;48.274;-1.900;2023-02-28T01:13:17;10.27;;;5.88;;
25365;SDS011;13315;48.274;-1.900;2023-02-28T01:15:50;10.98;;;5.63;;
25365;SDS011;13315;48.274;-1.900;2023-02-28T01:18:17;11.23;;;5.53;;
25365;SDS011;13315;48.274;-1.900;2023-02-28T01:20:43;12.00;;;5.70;;
25365;SDS011;13315;48.274;-1.900;2023-02-28T01:23:11;9.15;;;5.78;;
25365;SDS011;13315;48.274;-1.900;2023-02-28T01:25:37;10.77;;;6.43;;
25365;SDS011;13315;48.274;-1.900;2023-02-28T01:28:03;9.32;;;5.75;;
25365;SDS011;13315;48.274;-1.900;2023-02-28T01:30:30;16.05;;;6.70;;
25365;SDS011;13315;48.274;-1.900;2023-02-28T01:32:56;9.63;;;6.40;;
25365;SDS011;13315;48.274;-1.900;2023-02-28T01:35:22;13.20;;;6.88;;
25365;SDS011;13315;48.274;-1.900;2023-02-28T01:37:48;9.15;;;6.60;;
25365;SDS011;13315;48.274;-1.900;2023-02-28T01:40:14;11.43;;;6.18;;
25365;SDS011;13315;48.274;-1.900;2023-02-28T01:42:41;9.20;;;5.55;;
25365;SDS011;13315;48.274;-1.900;2023-02-28T01:45:26;15.05;;;6.38;;
25365;SDS011;13315;48.274;-1.900;2023-02-28T01:48:01;8.50;;;5.70;;
25365;SDS011;13315;48.274;-1.900;2023-02-28T01:50:28;12.15;;;6.75;;
25365;SDS011;13315;48.274;-1.900;2023-02-28T01:52:56;9.25;;;6.13;;
25365;SDS011;13315;48.274;-1.900;2023-02-28T01:55:23;10.52;;;6.22;;
25365;SDS011;13315;48.274;-1.900;2023-02-28T01:57:54;8.57;;;6.28;;
25365;SDS011;13315;48.274;-1.900;2023-02-28T02:00:21;8.63;;;6.22;;
25365;SDS011;13315;48.274;-1.900;2023-02-28T02:02:49;11.82;;;6.43;;
25365;SDS011;13315;48.274;-1.900;2023-02-28T02:05:19;13.15;;;6.70;;
25365;SDS011;13315;48.274;-1.900;2023-02-28T02:07:46;10.82;;;5.90;;
25365;SDS011;13315;48.274;-1.900;2023-02-28T02:10:20;13.43;;;7.37;;
25365;SDS011;13315;48.274;-1.900;2023-02-28T02:12:56;11.45;;;6.72;;
25365;SDS011;13315;48.274;-1.900;2023-02-28T02:18:01;19.45;;;6.72;;
25365;SDS011;13315;48.274;-1.900;2023-02-28T02:25:42;12.13;;;6.53;;
25365;SDS011;13315;48.274;-1.900;2023-02-28T02:38:33;9.88;;;6.32;;
25365;SDS011;13315;48.274;-1.900;2023-02-28T02:41:08;11.40;;;6.55;;
25365;SDS011;13315;48.274;-1.900;2023-02-28T02:43:37;15.20;;;7.57;;
25365;SDS011;13315;48.274;-1.900;2023-02-28T02:46:10;9.02;;;6.18;;
25365;SDS011;13315;48.274;-1.900;2023-02-28T02:48:38;12.13;;;6.85;;
25365;SDS011;13315;48.274;-1.900;2023-02-28T02:51:07;10.48;;;6.47;;
25365;SDS011;13315;48.274;-1.900;2023-02-28T02:54:00;9.32;;;6.68;;
25365;SDS011;13315;48.274;-1.900;2023-02-28T02:56:24;10.15;;;6.40;;
25365;SDS011;13315;48.274;-1.900;2023-02-28T02:58:52;10.95;;;5.78;;
25365;SDS011;13315;48.274;-1.900;2023-02-28T03:01:19;8.80;;;6.65;;
25365;SDS011;13315;48.274;-1.900;2023-02-28T03:03:52;11.32;;;6.10;;
25365;SDS011;13315;48.274;-1.900;2023-02-28T03:06:19;11.27;;;6.50;;
25365;SDS011;13315;48.274;-1.900;2023-02-28T03:08:45;10.38;;;6.75;;
25365;SDS011;13315;48.274;-1.900;2023-02-28T03:11:12;10.15;;;5.70;;
25365;SDS011;13315;48.274;-1.900;2023-02-28T03:26:21;12.93;;;5.90;;
25365;SDS011;13315;48.274;-1.900;2023-02-28T03:31:29;10.98;;;6.75;;
25365;SDS011;13315;48.274;-1.900;2023-02-28T03:36:29;13.65;;;6.40;;
25365;SDS011;13315;48.274;-1.900;2023-02-28T03:38:57;8.13;;;5.97;;
25365;SDS011;13315;48.274;-1.900;2023-02-28T03:41:30;12.00;;;5.80;;
25365;SDS011;13315;48.274;-1.900;2023-02-28T03:43:58;9.00;;;6.03;;
25365;SDS011;13315;48.274;-1.900;2023-02-28T03:46:26;8.35;;;5.90;;
25365;SDS011;13315;48.274;-1.900;2023-02-28T03:48:57;7.50;;;5.47;;
25365;SDS011;13315;48.274;-1.900;2023-02-28T03:51:26;8.13;;;5.78;;
25365;SDS011;13315;48.274;-1.900;2023-02-28T03:53:54;7.55;;;6.05;;
25365;SDS011;13315;48.274;-1.900;2023-02-28T03:56:24;10.02;;;6.70;;
25365;SDS011;13315;48.274;-1.900;2023-02-28T03:59:10;9.13;;;6.45;;
25365;SDS011;13315;48.274;-1.900;2023-02-28T04:01:40;14.05;;;6.68;;
25365;SDS011;13315;48.274;-1.900;2023-02-28T04:04:10;9.17;;;6.40;;
25365;SDS011;13315;48.274;-1.900;2023-02-28T04:06:37;8.98;;;6.80;;
25365;SDS011;13315;48.274;-1.900;2023-02-28T04:09:03;10.52;;;7.18;;
25365;SDS011;13315;48.274;-1.900;2023-02-28T04:11:34;9.95;;;6.82;;
25365;SDS011;13315;48.274;-1.900;2023-02-28T04:14:01;11.13;;;6.40;;
25365;SDS011;13315;48.274;-1.900;2023-02-28T04:16:28;10.18;;;6.88;;
25365;SDS011;13315;48.274;-1.900;2023-02-28T04:18:54;14.20;;;6.55;;
25365;SDS011;13315;48.274;-1.900;2023-02-28T04:21:29;13.43;;;7.25;;
25365;SDS011;13315;48.274;-1.900;2023-02-28T04:26:32;10.38;;;7.07;;
25365;SDS011;13315;48.274;-1.900;2023-02-28T04:28:59;12.05;;;7.35;;
25365;SDS011;13315;48.274;-1.900;2023-02-28T04:31:26;12.05;;;8.70;;
25365;SDS011;13315;48.274;-1.900;2023-02-28T04:33:52;9.73;;;7.45;;
25365;SDS011;13315;48.274;-1.900;2023-02-28T04:36:18;12.30;;;7.15;;
25365;SDS011;13315;48.274;-1.900;2023-02-28T04:38:44;15.88;;;7.05;;
25365;SDS011;13315;48.274;-1.900;2023-02-28T04:41:10;11.50;;;7.22;;
25365;SDS011;13315;48.274;-1.900;2023-02-28T04:43:37;10.30;;;7.35;;
25365;SDS011;13315;48.274;-1.900;2023-02-28T04:46:03;15.05;;;7.30;;
25365;SDS011;13315;48.274;-1.900;2023-02-28T04:48:30;10.88;;;6.75;;
25365;SDS011;13315;48.274;-1.900;2023-02-28T04:51:01;11.55;;;7.40;;
25365;SDS011;13315;48.274;-1.900;2023-02-28T04:53:28;10.30;;;7.45;;
25365;SDS011;13315;48.274;-1.900;2023-02-28T04:55:54;11.48;;;7.25;;
25365;SDS011;13315;48.274;-1.900;2023-02-28T04:58:21;15.95;;;7.97;;
25365;SDS011;13315;48.274;-1.900;2023-02-28T05:00:50;8.35;;;6.80;;
25365;SDS011;13315;48.274;-1.900;2023-02-28T05:03:16;10.18;;;7.50;;
25365;SDS011;13315;48.274;-1.900;2023-02-28T05:05:42;11.50;;;7.30;;
25365;SDS011;13315;48.274;-1.900;2023-02-28T05:08:08;11.23;;;7.82;;
25365;SDS011;13315;48.274;-1.900;2023-02-28T05:10:35;12.52;;;6.55;;
25365;SDS011;13315;48.274;-1.900;2023-02-28T05:13:01;10.25;;;7.30;;
25365;SDS011;13315;48.274;-1.900;2023-02-28T05:15:27;12.70;;;7.28;;
25365;SDS011;13315;48.274;-1.900;2023-02-28T05:17:53;12.90;;;8.02;;
25365;SDS011;13315;48.274;-1.900;2023-02-28T05:20:19;14.48;;;7.22;;
25365;SDS011;13315;48.274;-1.900;2023-02-28T05:22:46;9.98;;;7.40;;
25365;SDS011;13315;48.274;-1.900;2023-02-28T05:25:13;13.48;;;7.38;;
25365;SDS011;13315;48.274;-1.900;2023-02-28T05:27:41;10.35;;;6.85;;
25365;SDS011;13315;48.274;-1.900;2023-02-28T05:30:07;9.93;;;6.53;;
25365;SDS011;13315;48.274;-1.900;2023-02-28T05:32:36;13.13;;;7.53;;
25365;SDS011;13315;48.274;-1.900;2023-02-28T05:35:02;10.07;;;7.07;;
25365;SDS011;13315;48.274;-1.900;2023-02-28T05:37:28;14.30;;;7.85;;
25365;SDS011;13315;48.274;-1.900;2023-02-28T05:39:54;18.02;;;8.23;;
25365;SDS011;13315;48.274;-1.900;2023-02-28T05:42:20;12.75;;;7.22;;
25365;SDS011;13315;48.274;-1.900;2023-02-28T05:44:46;11.70;;;7.18;;
25365;SDS011;13315;48.274;-1.900;2023-02-28T05:47:12;12.45;;;7.32;;
25365;SDS011;13315;48.274;-1.900;2023-02-28T05:49:40;11.00;;;7.45;;
25365;SDS011;13315;48.274;-1.900;2023-02-28T05:52:07;10.55;;;6.80;;
25365;SDS011;13315;48.274;-1.900;2023-02-28T05:54:33;13.30;;;7.10;;
25365;SDS011;13315;48.274;-1.900;2023-02-28T05:56:59;11.68;;;7.07;;
25365;SDS011;13315;48.274;-1.900;2023-02-28T05:59:25;8.90;;;6.80;;
25365;SDS011;13315;48.274;-1.900;2023-02-28T06:01:51;13.35;;;7.00;;
25365;SDS011;13315;48.274;-1.900;2023-02-28T06:04:18;13.15;;;7.93;;
25365;SDS011;13315;48.274;-1.900;2023-02-28T06:06:48;9.63;;;6.65;;
25365;SDS011;13315;48.274;-1.900;2023-02-28T06:09:14;14.18;;;7.75;;
25365;SDS011;13315;48.274;-1.900;2023-02-28T06:11:41;12.73;;;7.43;;
25365;SDS011;13315;48.274;-1.900;2023-02-28T06:14:07;16.35;;;8.40;;
25365;SDS011;13315;48.274;-1.900;2023-02-28T06:16:34;15.13;;;8.15;;
25365;SDS011;13315;48.274;-1.900;2023-02-28T06:19:01;11.85;;;7.90;;
25365;SDS011;13315;48.274;-1.900;2023-02-28T06:21:28;12.80;;;8.32;;
25365;SDS011;13315;48.274;-1.900;2023-02-28T06:23:54;14.30;;;7.97;;
25365;SDS011;13315;48.274;-1.900;2023-02-28T06:26:20;11.70;;;7.88;;
25365;SDS011;13315;48.274;-1.900;2023-02-28T06:28:46;14.93;;;8.25;;
25365;SDS011;13315;48.274;-1.900;2023-02-28T06:31:14;20.67;;;9.57;;
25365;SDS011;13315;48.274;-1.900;2023-02-28T06:33:40;16.23;;;9.40;;
25365;SDS011;13315;48.274;-1.900;2023-02-28T06:36:07;17.13;;;9.32;;
25365;SDS011;13315;48.274;-1.900;2023-02-28T06:38:34;16.13;;;9.88;;
25365;SDS011;13315;48.274;-1.900;2023-02-28T06:41:00;16.13;;;9.77;;
25365;SDS011;13315;48.274;-1.900;2023-02-28T06:43:33;16.20;;;9.23;;
25365;SDS011;13315;48.274;-1.900;2023-02-28T06:46:00;14.10;;;8.88;;
25365;SDS011;13315;48.274;-1.900;2023-02-28T06:48:26;15.30;;;8.77;;
25365;SDS011;13315;48.274;-1.900;2023-02-28T06:51:01;16.50;;;8.48;;
25365;SDS011;13315;48.274;-1.900;2023-02-28T06:53:27;13.18;;;7.88;;
25365;SDS011;13315;48.274;-1.900;2023-02-28T06:55:53;13.50;;;7.72;;
25365;SDS011;13315;48.274;-1.900;2023-02-28T06:58:19;13.20;;;8.18;;
25365;SDS011;13315;48.274;-1.900;2023-02-28T07:00:45;12.48;;;8.13;;
25365;SDS011;13315;48.274;-1.900;2023-02-28T07:03:11;12.95;;;7.93;;
25365;SDS011;13315;48.274;-1.900;2023-02-28T07:05:39;14.98;;;8.82;;
25365;SDS011;13315;48.274;-1.900;2023-02-28T07:08:05;14.30;;;8.82;;
25365;SDS011;13315;48.274;-1.900;2023-02-28T07:10:33;15.25;;;8.45;;
25365;SDS011;13315;48.274;-1.900;2023-02-28T07:12:59;16.02;;;9.50;;
25365;SDS011;13315;48.274;-1.900;2023-02-28T07:15:25;13.75;;;8.80;;
25365;SDS011;13315;48.274;-1.900;2023-02-28T07:17:52;13.05;;;8.52;;
25365;SDS011;13315;48.274;-1.900;2023-02-28T07:20:19;14.35;;;8.60;;
25365;SDS011;13315;48.274;-1.900;2023-02-28T07:22:45;18.27;;;9.32;;
25365;SDS011;13315;48.274;-1.900;2023-02-28T07:25:16;18.52;;;8.93;;
25365;SDS011;13315;48.274;-1.900;2023-02-28T07:27:42;14.20;;;8.93;;
25365;SDS011;13315;48.274;-1.900;2023-02-28T07:30:09;18.13;;;9.07;;
25365;SDS011;13315;48.274;-1.900;2023-02-28T07:32:35;15.93;;;9.25;;
25365;SDS011;13315;48.274;-1.900;2023-02-28T07:35:02;15.25;;;9.32;;
25365;SDS011;13315;48.274;-1.900;2023-02-28T07:37:28;18.30;;;9.98;;
25365;SDS011;13315;48.274;-1.900;2023-02-28T07:39:56;14.88;;;9.52;;
25365;SDS011;13315;48.274;-1.900;2023-02-28T07:42:22;16.10;;;10.23;;
25365;SDS011;13315;48.274;-1.900;2023-02-28T07:44:48;18.88;;;10.60;;
25365;SDS011;13315;48.274;-1.900;2023-02-28T07:47:16;15.47;;;10.53;;
25365;SDS011;13315;48.274;-1.900;2023-02-28T07:49:42;16.33;;;9.50;;
25365;SDS011;13315;48.274;-1.900;2023-02-28T07:52:08;18.38;;;9.88;;
25365;SDS011;13315;48.274;-1.900;2023-02-28T07:54:34;22.30;;;10.80;;
25365;SDS011;13315;48.274;-1.900;2023-02-28T07:57:00;20.98;;;10.23;;
25365;SDS011;13315;48.274;-1.900;2023-02-28T07:59:27;21.35;;;10.02;;
25365;SDS011;13315;48.274;-1.900;2023-02-28T08:01:53;19.80;;;10.15;;
25365;SDS011;13315;48.274;-1.900;2023-02-28T08:04:19;17.10;;;10.32;;
25365;SDS011;13315;48.274;-1.900;2023-02-28T08:06:46;16.20;;;10.35;;
25365;SDS011;13315;48.274;-1.900;2023-02-28T08:09:12;19.25;;;10.55;;
25365;SDS011;13315;48.274;-1.900;2023-02-28T08:11:39;18.48;;;9.80;;
25365;SDS011;13315;48.274;-1.900;2023-02-28T08:14:05;16.63;;;9.38;;
25365;SDS011;13315;48.274;-1.900;2023-02-28T08:16:31;19.63;;;10.18;;
25365;SDS011;13315;48.274;-1.900;2023-02-28T08:18:57;22.55;;;11.07;;
25365;SDS011;13315;48.274;-1.900;2023-02-28T08:21:23;17.33;;;11.32;;
25365;SDS011;13315;48.274;-1.900;2023-02-28T08:23:50;18.83;;;10.40;;
25365;SDS011;13315;48.274;-1.900;2023-02-28T08:26:16;18.20;;;10.32;;
25365;SDS011;13315;48.274;-1.900;2023-02-28T08:28:43;26.88;;;24.05;;
25365;SDS011;13315;48.274;-1.900;2023-02-28T08:31:10;27.27;;;24.73;;
25365;SDS011;13315;48.274;-1.900;2023-02-28T08:33:37;38.90;;;35.05;;
25365;SDS011;13315;48.274;-1.900;2023-02-28T08:36:04;34.53;;;30.83;;
25365;SDS011;13315;48.274;-1.900;2023-02-28T08:38:30;37.22;;;33.33;;
25365;SDS011;13315;48.274;-1.900;2023-02-28T08:40:57;37.15;;;33.53;;
25365;SDS011;13315;48.274;-1.900;2023-02-28T08:43:24;33.58;;;29.60;;
25365;SDS011;13315;48.274;-1.900;2023-02-28T08:45:53;37.60;;;33.38;;
25365;SDS011;13315;48.274;-1.900;2023-02-28T08:48:21;18.38;;;11.45;;
25365;SDS011;13315;48.274;-1.900;2023-02-28T08:53:25;24.10;;;13.05;;
25365;SDS011;13315;48.274;-1.900;2023-02-28T08:55:55;22.92;;;12.20;;
25365;SDS011;13315;48.274;-1.900;2023-02-28T08:58:22;20.48;;;10.93;;
25365;SDS011;13315;48.274;-1.900;2023-02-28T09:00:48;23.95;;;11.20;;
25365;SDS011;13315;48.274;-1.900;2023-02-28T09:03:15;18.55;;;10.68;;
25365;SDS011;13315;48.274;-1.900;2023-02-28T09:05:50;18.38;;;10.43;;
25365;SDS011;13315;48.274;-1.900;2023-02-28T09:08:17;18.35;;;11.00;;
25365;SDS011;13315;48.274;-1.900;2023-02-28T09:10:43;20.00;;;11.00;;
25365;SDS011;13315;48.274;-1.900;2023-02-28T09:13:09;22.65;;;11.82;;
25365;SDS011;13315;48.274;-1.900;2023-02-28T09:15:36;19.15;;;11.13;;
25365;SDS011;13315;48.274;-1.900;2023-02-28T09:18:02;19.27;;;10.63;;
25365;SDS011;13315;48.274;-1.900;2023-02-28T09:20:28;18.83;;;11.13;;
25365;SDS011;13315;48.274;-1.900;2023-02-28T09:22:55;17.90;;;10.38;;
25365;SDS011;13315;48.274;-1.900;2023-02-28T09:25:21;18.50;;;10.25;;
25365;SDS011;13315;48.274;-1.900;2023-02-28T09:27:47;16.05;;;9.70;;
25365;SDS011;13315;48.274;-1.900;2023-02-28T09:30:13;17.80;;;8.98;;
25365;SDS011;13315;48.274;-1.900;2023-02-28T09:32:41;15.85;;;9.05;;
25365;SDS011;13315;48.274;-1.900;2023-02-28T09:35:07;13.05;;;8.32;;
25365;SDS011;13315;48.274;-1.900;2023-02-28T09:37:38;12.00;;;7.70;;
25365;SDS011;13315;48.274;-1.900;2023-02-28T09:40:05;13.68;;;7.93;;
25365;SDS011;13315;48.274;-1.900;2023-02-28T09:42:32;13.05;;;7.97;;
25365;SDS011;13315;48.274;-1.900;2023-02-28T09:44:59;12.77;;;8.10;;
25365;SDS011;13315;48.274;-1.900;2023-02-28T09:49:55;11.95;;;6.90;;
25365;SDS011;13315;48.274;-1.900;2023-02-28T09:52:26;12.88;;;8.05;;
25365;SDS011;13315;48.274;-1.900;2023-02-28T09:54:55;13.93;;;7.63;;
25365;SDS011;13315;48.274;-1.900;2023-02-28T09:57:28;10.82;;;6.90;;
25365;SDS011;13315;48.274;-1.900;2023-02-28T10:00:13;35.22;;;31.95;;
25365;SDS011;13315;48.274;-1.900;2023-02-28T10:05:37;31.33;;;28.27;;
25365;SDS011;13315;48.274;-1.900;2023-02-28T10:08:10;34.78;;;31.73;;
25365;SDS011;13315;48.274;-1.900;2023-02-28T10:10:47;26.50;;;24.20;;
25365;SDS011;13315;48.274;-1.900;2023-02-28T10:15:40;6.93;;;5.38;;
25365;SDS011;13315;48.274;-1.900;2023-02-28T10:18:09;9.50;;;5.00;;
25365;SDS011;13315;48.274;-1.900;2023-02-28T10:20:40;9.57;;;5.10;;
25365;SDS011;13315;48.274;-1.900;2023-02-28T10:23:13;7.50;;;5.07;;
25365;SDS011;13315;48.274;-1.900;2023-02-28T10:25:40;7.07;;;4.65;;
25365;SDS011;13315;48.274;-1.900;2023-02-28T10:28:13;7.75;;;5.35;;
25365;SDS011;13315;48.274;-1.900;2023-02-28T10:30:41;5.53;;;4.45;;
25365;SDS011;13315;48.274;-1.900;2023-02-28T10:33:13;6.90;;;4.70;;
25365;SDS011;13315;48.274;-1.900;2023-02-28T10:35:42;6.80;;;4.05;;
25365;SDS011;13315;48.274;-1.900;2023-02-28T10:38:12;5.60;;;4.15;;
25365;SDS011;13315;48.274;-1.900;2023-02-28T10:40:40;6.50;;;4.93;;
25365;SDS011;13315;48.274;-1.900;2023-02-28T10:55:57;5.95;;;4.80;;
25365;SDS011;13315;48.274;-1.900;2023-02-28T10:58:24;5.88;;;3.75;;
25365;SDS011;13315;48.274;-1.900;2023-02-28T11:00:51;6.28;;;4.70;;
25365;SDS011;13315;48.274;-1.900;2023-02-28T11:03:24;13.32;;;4.10;;
25365;SDS011;13315;48.274;-1.900;2023-02-28T11:05:50;4.63;;;3.67;;
25365;SDS011;13315;48.274;-1.900;2023-02-28T11:08:17;6.00;;;4.40;;
25365;SDS011;13315;48.274;-1.900;2023-02-28T11:10:44;5.88;;;4.13;;
25365;SDS011;13315;48.274;-1.900;2023-02-28T11:13:17;6.20;;;4.50;;
25365;SDS011;13315;48.274;-1.900;2023-02-28T11:15:52;6.85;;;4.60;;
25365;SDS011;13315;48.274;-1.900;2023-02-28T11:18:29;7.68;;;4.35;;
25365;SDS011;13315;48.274;-1.900;2023-02-28T11:20:56;5.40;;;4.03;;
25365;SDS011;13315;48.274;-1.900;2023-02-28T11:23:24;8.48;;;4.60;;
25365;SDS011;13315;48.274;-1.900;2023-02-28T11:25:52;4.93;;;3.83;;
25365;SDS011;13315;48.274;-1.900;2023-02-28T11:36:13;27.00;;;24.38;;
25365;SDS011;13315;48.274;-1.900;2023-02-28T11:38:40;30.33;;;27.40;;
25365;SDS011;13315;48.274;-1.900;2023-02-28T11:41:17;30.02;;;27.23;;
25365;SDS011;13315;48.274;-1.900;2023-02-28T11:46:35;28.67;;;25.80;;
25365;SDS011;13315;48.274;-1.900;2023-02-28T11:51:42;5.53;;;3.63;;
25365;SDS011;13315;48.274;-1.900;2023-02-28T11:57:00;6.70;;;4.43;;
25365;SDS011;13315;48.274;-1.900;2023-02-28T11:59:34;8.18;;;4.25;;
25365;SDS011;13315;48.274;-1.900;2023-02-28T12:04:50;4.57;;;3.30;;
25365;SDS011;13315;48.274;-1.900;2023-02-28T12:09:59;6.13;;;3.70;;
25365;SDS011;13315;48.274;-1.900;2023-02-28T12:20:13;5.32;;;3.70;;
25365;SDS011;13315;48.274;-1.900;2023-02-28T12:28:12;5.80;;;4.18;;
25365;SDS011;13315;48.274;-1.900;2023-02-28T12:31:00;4.60;;;3.55;;
25365;SDS011;13315;48.274;-1.900;2023-02-28T12:33:28;6.13;;;4.30;;
25365;SDS011;13315;48.274;-1.900;2023-02-28T12:35:58;4.38;;;3.30;;
25365;SDS011;13315;48.274;-1.900;2023-02-28T12:38:34;4.28;;;3.30;;
25365;SDS011;13315;48.274;-1.900;2023-02-28T12:41:16;4.90;;;3.72;;
25365;SDS011;13315;48.274;-1.900;2023-02-28T12:43:45;4.13;;;2.72;;
25365;SDS011;13315;48.274;-1.900;2023-02-28T12:46:14;3.38;;;3.08;;
25365;SDS011;13315;48.274;-1.900;2023-02-28T12:48:44;3.30;;;3.00;;
25365;SDS011;13315;48.274;-1.900;2023-02-28T12:51:12;3.67;;;2.97;;
25365;SDS011;13315;48.274;-1.900;2023-02-28T12:54:00;6.53;;;3.20;;
25365;SDS011;13315;48.274;-1.900;2023-02-28T12:59:01;3.22;;;2.70;;
25365;SDS011;13315;48.274;-1.900;2023-02-28T13:01:35;4.35;;;3.08;;
25365;SDS011;13315;48.274;-1.900;2023-02-28T13:04:19;5.38;;;3.00;;
25365;SDS011;13315;48.274;-1.900;2023-02-28T13:09:32;19.90;;;18.60;;
25365;SDS011;13315;48.274;-1.900;2023-02-28T13:11:59;15.23;;;14.05;;
25365;SDS011;13315;48.274;-1.900;2023-02-28T13:17:10;20.02;;;18.63;;
25365;SDS011;13315;48.274;-1.900;2023-02-28T13:19:44;5.28;;;3.30;;
25365;SDS011;13315;48.274;-1.900;2023-02-28T13:22:21;3.33;;;3.03;;
25365;SDS011;13315;48.274;-1.900;2023-02-28T13:25:02;5.32;;;3.50;;
25365;SDS011;13315;48.274;-1.900;2023-02-28T13:27:32;4.63;;;3.92;;
25365;SDS011;13315;48.274;-1.900;2023-02-28T13:29:59;5.55;;;4.00;;
25365;SDS011;13315;48.274;-1.900;2023-02-28T13:32:34;5.22;;;3.92;;
25365;SDS011;13315;48.274;-1.900;2023-02-28T13:39:59;6.75;;;4.18;;
25365;SDS011;13315;48.274;-1.900;2023-02-28T13:47:29;20.52;;;18.90;;
25365;SDS011;13315;48.274;-1.900;2023-02-28T13:52:45;15.88;;;13.88;;
25365;SDS011;13315;48.274;-1.900;2023-02-28T14:02:46;8.43;;;4.80;;
25365;SDS011;13315;48.274;-1.900;2023-02-28T14:05:15;5.80;;;4.50;;
25365;SDS011;13315;48.274;-1.900;2023-02-28T14:07:46;18.93;;;17.53;;
25365;SDS011;13315;48.274;-1.900;2023-02-28T14:10:41;16.42;;;15.02;;
25365;SDS011;13315;48.274;-1.900;2023-02-28T14:15:45;23.13;;;21.23;;
25365;SDS011;13315;48.274;-1.900;2023-02-28T14:18:17;18.38;;;16.90;;
25365;SDS011;13315;48.274;-1.900;2023-02-28T14:20:44;22.27;;;20.58;;
25365;SDS011;13315;48.274;-1.900;2023-02-28T14:26:03;21.05;;;19.50;;
25365;SDS011;13315;48.274;-1.900;2023-02-28T14:31:13;8.77;;;6.90;;
25365;SDS011;13315;48.274;-1.900;2023-02-28T14:36:35;6.88;;;4.75;;
25365;SDS011;13315;48.274;-1.900;2023-02-28T14:39:06;7.82;;;5.68;;
25365;SDS011;13315;48.274;-1.900;2023-02-28T14:41:34;11.30;;;6.13;;
25365;SDS011;13315;48.274;-1.900;2023-02-28T14:44:02;9.27;;;6.32;;
25365;SDS011;13315;48.274;-1.900;2023-02-28T14:46:35;9.02;;;6.15;;
25365;SDS011;13315;48.274;-1.900;2023-02-28T14:49:03;7.07;;;5.00;;
25365;SDS011;13315;48.274;-1.900;2023-02-28T14:51:29;9.27;;;5.57;;
25365;SDS011;13315;48.274;-1.900;2023-02-28T14:53:57;7.22;;;5.25;;
25365;SDS011;13315;48.274;-1.900;2023-02-28T14:56:24;9.45;;;6.20;;
25365;SDS011;13315;48.274;-1.900;2023-02-28T14:58:52;8.32;;;5.95;;
25365;SDS011;13315;48.274;-1.900;2023-02-28T15:01:19;12.57;;;7.38;;
25365;SDS011;13315;48.274;-1.900;2023-02-28T15:03:46;9.55;;;6.05;;
25365;SDS011;13315;48.274;-1.900;2023-02-28T15:06:13;12.38;;;5.82;;
25365;SDS011;13315;48.274;-1.900;2023-02-28T15:08:39;8.77;;;5.95;;
25365;SDS011;13315;48.274;-1.900;2023-02-28T15:11:11;7.85;;;5.53;;
25365;SDS011;13315;48.274;-1.900;2023-02-28T15:16:04;10.73;;;6.15;;
25365;SDS011;13315;48.274;-1.900;2023-02-28T15:21:20;10.50;;;6.47;;
25365;SDS011;13315;48.274;-1.900;2023-02-28T15:24:10;8.45;;;5.82;;
25365;SDS011;13315;48.274;-1.900;2023-02-28T15:26:34;10.23;;;6.68;;
25365;SDS011;13315;48.274;-1.900;2023-02-28T15:29:04;13.60;;;6.85;;
25365;SDS011;13315;48.274;-1.900;2023-02-28T15:31:35;9.50;;;6.03;;
25365;SDS011;13315;48.274;-1.900;2023-02-28T15:34:06;10.60;;;6.90;;
25365;SDS011;13315;48.274;-1.900;2023-02-28T15:36:33;7.65;;;6.18;;
25365;SDS011;13315;48.274;-1.900;2023-02-28T15:39:02;9.68;;;6.22;;
25365;SDS011;13315;48.274;-1.900;2023-02-28T15:41:29;12.77;;;6.65;;
25365;SDS011;13315;48.274;-1.900;2023-02-28T15:47:03;11.32;;;6.55;;
25365;SDS011;13315;48.274;-1.900;2023-02-28T15:49:27;11.57;;;6.97;;
25365;SDS011;13315;48.274;-1.900;2023-02-28T15:51:55;13.77;;;7.75;;
25365;SDS011;13315;48.274;-1.900;2023-02-28T15:54:30;10.15;;;6.78;;
25365;SDS011;13315;48.274;-1.900;2023-02-28T15:57:00;12.10;;;7.32;;
25365;SDS011;13315;48.274;-1.900;2023-02-28T15:59:28;10.05;;;6.72;;
25365;SDS011;13315;48.274;-1.900;2023-02-28T16:04:36;12.45;;;8.10;;
25365;SDS011;13315;48.274;-1.900;2023-02-28T16:07:03;12.95;;;8.38;;
25365;SDS011;13315;48.274;-1.900;2023-02-28T16:09:29;13.93;;;8.02;;
25365;SDS011;13315;48.274;-1.900;2023-02-28T16:11:56;11.70;;;8.27;;
25365;SDS011;13315;48.274;-1.900;2023-02-28T16:14:26;17.63;;;8.35;;
25365;SDS011;13315;48.274;-1.900;2023-02-28T16:16:55;12.15;;;8.57;;
25365;SDS011;13315;48.274;-1.900;2023-02-28T16:19:22;14.02;;;7.97;;
25365;SDS011;13315;48.274;-1.900;2023-02-28T16:21:49;15.18;;;8.02;;
25365;SDS011;13315;48.274;-1.900;2023-02-28T16:24:15;14.73;;;9.88;;
25365;SDS011;13315;48.274;-1.900;2023-02-28T16:26:41;17.50;;;8.60;;
25365;SDS011;13315;48.274;-1.900;2023-02-28T16:29:09;16.70;;;13.55;;
25365;SDS011;13315;48.274;-1.900;2023-02-28T16:31:36;27.77;;;14.65;;
25365;SDS011;13315;48.274;-1.900;2023-02-28T16:34:03;12.90;;;10.70;;
25365;SDS011;13315;48.274;-1.900;2023-02-28T16:36:29;14.30;;;12.80;;
25365;SDS011;13315;48.274;-1.900;2023-02-28T16:38:55;15.73;;;13.30;;
25365;SDS011;13315;48.274;-1.900;2023-02-28T16:41:23;13.27;;;7.15;;
25365;SDS011;13315;48.274;-1.900;2023-02-28T16:43:51;8.63;;;6.20;;
25365;SDS011;13315;48.274;-1.900;2023-02-28T16:46:17;9.80;;;8.90;;
25365;SDS011;13315;48.274;-1.900;2023-02-28T16:48:44;10.55;;;8.23;;
25365;SDS011;13315;48.274;-1.900;2023-02-28T16:51:11;8.10;;;7.10;;
25365;SDS011;13315;48.274;-1.900;2023-02-28T16:53:38;8.90;;;7.88;;
25365;SDS011;13315;48.274;-1.900;2023-02-28T16:56:04;10.60;;;8.70;;